createdAt,value
2024-05-09T00:01:22.947Z,93379.00
2024-05-09T00:02:23.035Z,93378.00
2024-05-09T00:03:22.917Z,93378.00
2024-05-09T00:04:22.975Z,93378.00
2024-05-09T00:05:22.981Z,93377.00
2024-05-09T00:06:22.852Z,93377.00
2024-05-09T00:07:22.938Z,93377.00
2024-05-09T00:08:22.896Z,93378.00
2024-05-09T00:09:22.811Z,93378.00
2024-05-09T00:10:29.247Z,93378.00
2024-05-09T00:11:23.912Z,93379.00
2024-05-09T00:12:22.939Z,93377.00
2024-05-09T00:13:22.792Z,93379.00
2024-05-09T00:14:22.889Z,93380.00
2024-05-09T00:15:22.772Z,93378.00
2024-05-09T00:16:22.773Z,93379.00
2024-05-09T00:17:22.932Z,93379.00
2024-05-09T00:18:22.913Z,93380.00
2024-05-09T00:19:22.937Z,93382.00
2024-05-09T00:20:28.429Z,93380.00
2024-05-09T00:21:23.759Z,93379.00
2024-05-09T00:22:22.757Z,93381.00
2024-05-09T00:23:22.830Z,93378.00
2024-05-09T00:24:22.737Z,93378.00
2024-05-09T00:25:22.743Z,93378.00
2024-05-09T00:26:22.815Z,93377.00
2024-05-09T00:27:22.741Z,93376.00
2024-05-09T00:28:22.724Z,93374.00
2024-05-09T00:29:22.748Z,93374.00
2024-05-09T00:30:31.086Z,93375.00
2024-05-09T00:31:23.707Z,93373.00
2024-05-09T00:32:22.821Z,93372.00
2024-05-09T00:33:22.873Z,93370.00
2024-05-09T00:34:22.798Z,93372.00
2024-05-09T00:35:22.731Z,93371.00
2024-05-09T00:36:22.698Z,93371.00
2024-05-09T00:37:22.662Z,93367.00
2024-05-09T00:38:22.750Z,93367.00
2024-05-09T00:39:22.654Z,93367.00
2024-05-09T00:40:30.969Z,93367.00
2024-05-09T00:41:23.765Z,93366.00
2024-05-09T00:42:22.642Z,93366.00
2024-05-09T00:43:22.630Z,93367.00
2024-05-09T00:44:22.798Z,93365.00
2024-05-09T00:45:22.606Z,93368.00
2024-05-09T00:46:22.601Z,93369.00
2024-05-09T00:47:22.761Z,93368.00
2024-05-09T00:48:22.692Z,93370.00
2024-05-09T00:49:22.756Z,93367.00
2024-05-09T00:50:29.594Z,93367.00
2024-05-09T00:51:23.571Z,93367.00
2024-05-09T00:52:22.536Z,93366.00
2024-05-09T00:53:22.565Z,93366.00
2024-05-09T00:54:22.533Z,93366.00
2024-05-09T00:55:22.529Z,93364.00
2024-05-09T00:56:22.618Z,93365.00
2024-05-09T00:57:22.512Z,93367.00
2024-05-09T00:58:22.503Z,93365.00
2024-05-09T00:59:22.643Z,93364.00
2024-05-09T01:00:31.105Z,93365.00
2024-05-09T01:01:23.520Z,93365.00
2024-05-09T01:02:22.671Z,93365.00
2024-05-09T01:03:22.988Z,93365.00
2024-05-09T01:04:22.504Z,93364.00
2024-05-09T01:05:22.492Z,93363.00
2024-05-09T01:06:22.485Z,93363.00
2024-05-09T01:07:22.479Z,93362.00
2024-05-09T01:08:22.473Z,93360.00
2024-05-09T01:09:22.458Z,93360.00
2024-05-09T01:10:28.153Z,93359.00
2024-05-09T01:11:23.581Z,93355.00
2024-05-09T01:12:22.611Z,93359.00
2024-05-09T01:13:22.456Z,93359.00
2024-05-09T01:14:22.447Z,93356.00
2024-05-09T01:15:22.475Z,93357.00
2024-05-09T01:16:22.449Z,93357.00
2024-05-09T01:17:22.593Z,93357.00
2024-05-09T01:18:22.564Z,93355.00
2024-05-09T01:19:22.524Z,93354.00
2024-05-09T01:21:22.457Z,93353.00
2024-05-09T01:22:22.439Z,93354.00
2024-05-09T01:23:22.544Z,93354.00
2024-05-09T01:24:22.432Z,93355.00
2024-05-09T01:25:22.435Z,93353.00
2024-05-09T01:26:22.473Z,93352.00
2024-05-09T01:27:22.482Z,93354.00
2024-05-09T01:28:22.450Z,93353.00
2024-05-09T01:29:22.567Z,93352.00
2024-05-09T01:30:31.239Z,93352.00
2024-05-09T01:31:23.433Z,93352.00
2024-05-09T01:32:22.714Z,93351.00
2024-05-09T01:33:22.639Z,93352.00
2024-05-09T01:34:22.635Z,93352.00
2024-05-09T01:35:22.471Z,93353.00
2024-05-09T01:36:22.426Z,93354.00
2024-05-09T01:37:22.445Z,93352.00
2024-05-09T01:38:22.488Z,93353.00
2024-05-09T01:39:22.451Z,93353.00
2024-05-09T01:40:29.126Z,93354.00
2024-05-09T01:41:23.478Z,93353.00
2024-05-09T01:42:22.445Z,93352.00
2024-05-09T01:43:22.430Z,93353.00
2024-05-09T01:44:22.531Z,93349.00
2024-05-09T01:45:22.420Z,93352.00
2024-05-09T01:46:22.429Z,93350.00
2024-05-09T01:47:22.592Z,93350.00
2024-05-09T01:48:22.617Z,93348.00
2024-05-09T01:49:22.518Z,93348.00
2024-05-09T01:50:33.299Z,93350.00
2024-05-09T01:51:23.451Z,93352.00
2024-05-09T01:52:22.393Z,93351.00
2024-05-09T01:53:22.445Z,93351.00
2024-05-09T01:54:22.389Z,93352.00
2024-05-09T01:55:22.379Z,93352.00
2024-05-09T01:56:22.398Z,93354.00
2024-05-09T01:57:22.370Z,93353.00
2024-05-09T01:58:22.364Z,93354.00
2024-05-09T01:59:22.492Z,93355.00
2024-05-09T02:00:33.184Z,93357.00
2024-05-09T02:01:23.361Z,93356.00
2024-05-09T02:02:22.412Z,93358.00
2024-05-09T02:03:22.446Z,93357.00
2024-05-09T02:04:22.475Z,93358.00
2024-05-09T02:05:22.404Z,93359.00
2024-05-09T02:06:22.304Z,93359.00
2024-05-09T02:07:22.310Z,93357.00
2024-05-09T02:08:22.483Z,93357.00
2024-05-09T02:09:22.290Z,93359.00
2024-05-09T02:10:26.426Z,93356.00
2024-05-09T02:11:23.334Z,93358.00
2024-05-09T02:12:22.458Z,93357.00
2024-05-09T02:13:22.266Z,93358.00
2024-05-09T02:14:22.315Z,93358.00
2024-05-09T02:15:22.249Z,93360.00
2024-05-09T02:16:22.264Z,93358.00
2024-05-09T02:17:22.610Z,93361.00
2024-05-09T02:18:22.431Z,93360.00
2024-05-09T02:19:22.514Z,93361.00
2024-05-09T02:20:29.798Z,93359.00
2024-05-09T02:21:23.223Z,93360.00
2024-05-09T02:22:22.244Z,93360.00
2024-05-09T02:23:22.288Z,93362.00
2024-05-09T02:24:22.225Z,93363.00
2024-05-09T02:25:22.196Z,93363.00
2024-05-09T02:26:22.298Z,93366.00
2024-05-09T02:27:22.179Z,93364.00
2024-05-09T02:28:22.174Z,93361.00
2024-05-09T02:29:22.383Z,93360.00
2024-05-09T02:30:26.385Z,93362.00
2024-05-09T02:31:23.139Z,93361.00
2024-05-09T02:32:22.300Z,93361.00
2024-05-09T02:33:22.451Z,93360.00
2024-05-09T02:34:22.242Z,93358.00
2024-05-09T02:35:22.164Z,93355.00
2024-05-09T02:36:22.107Z,93357.00
2024-05-09T02:37:22.104Z,93356.00
2024-05-09T02:38:22.118Z,93358.00
2024-05-09T02:39:22.084Z,93358.00
2024-05-09T02:41:22.120Z,93355.00
2024-05-09T02:42:22.084Z,93356.00
2024-05-09T02:43:22.059Z,93355.00
2024-05-09T02:44:22.096Z,93355.00
2024-05-09T02:45:22.067Z,93353.00
2024-05-09T02:46:22.052Z,93354.00
2024-05-09T02:47:22.256Z,93355.00
2024-05-09T02:48:22.220Z,93354.00
2024-05-09T02:49:22.086Z,93352.00
2024-05-09T02:51:22.030Z,93353.00
2024-05-09T02:52:22.039Z,93349.00
2024-05-09T02:53:22.070Z,93348.00
2024-05-09T02:54:22.007Z,93348.00
2024-05-09T02:55:22.012Z,93347.00
2024-05-09T02:56:22.082Z,93349.00
2024-05-09T02:57:22.014Z,93347.00
2024-05-09T02:58:22.009Z,93345.00
2024-05-09T02:59:22.247Z,93346.00
2024-05-09T03:00:26.514Z,93348.00
2024-05-09T03:01:23.041Z,93349.00
2024-05-09T03:02:22.198Z,93350.00
2024-05-09T03:03:22.442Z,93350.00
2024-05-09T03:04:21.991Z,93350.00
2024-05-09T03:05:21.968Z,93350.00
2024-05-09T03:06:21.927Z,93349.00
2024-05-09T03:07:21.926Z,93349.00
2024-05-09T03:08:22.028Z,93348.00
2024-05-09T03:09:21.913Z,93348.00
2024-05-09T03:10:25.446Z,93348.00
2024-05-09T03:11:22.954Z,93347.00
2024-05-09T03:12:21.923Z,93348.00
2024-05-09T03:13:21.870Z,93346.00
2024-05-09T03:14:21.963Z,93348.00
2024-05-09T03:15:21.858Z,93346.00
2024-05-09T03:16:21.855Z,93349.00
2024-05-09T03:17:21.954Z,93348.00
2024-05-09T03:18:21.980Z,93349.00
2024-05-09T03:19:22.136Z,93348.00
2024-05-09T03:20:27.349Z,93348.00
2024-05-09T03:21:22.841Z,93348.00
2024-05-09T03:22:21.827Z,93350.00
2024-05-09T03:23:21.898Z,93350.00
2024-05-09T03:24:21.804Z,93352.00
2024-05-09T03:25:21.793Z,93354.00
2024-05-09T03:26:21.844Z,93355.00
2024-05-09T03:27:21.796Z,93355.00
2024-05-09T03:28:21.791Z,93354.00
2024-05-09T03:29:21.859Z,93354.00
2024-05-09T03:30:28.734Z,93356.00
2024-05-09T03:31:22.770Z,93356.00
2024-05-09T03:32:21.907Z,93356.00
2024-05-09T03:33:22.270Z,93356.00
2024-05-09T03:34:21.763Z,93356.00
2024-05-09T03:35:21.832Z,93358.00
2024-05-09T03:36:21.687Z,93357.00
2024-05-09T03:37:21.680Z,93357.00
2024-05-09T03:38:21.726Z,93359.00
2024-05-09T03:39:21.662Z,93359.00
2024-05-09T03:40:26.374Z,93361.00
2024-05-09T03:41:23.014Z,93362.00
2024-05-09T03:42:21.631Z,93362.00
2024-05-09T03:43:21.637Z,93360.00
2024-05-09T03:44:21.650Z,93362.00
2024-05-09T03:45:21.609Z,93362.00
2024-05-09T03:46:21.603Z,93362.00
2024-05-09T03:47:21.904Z,93361.00
2024-05-09T03:48:21.800Z,93364.00
2024-05-09T03:49:21.958Z,93360.00
2024-05-09T03:50:26.188Z,93360.00
2024-05-09T03:51:22.559Z,93359.00
2024-05-09T03:52:21.558Z,93357.00
2024-05-09T03:53:21.549Z,93359.00
2024-05-09T03:54:21.527Z,93360.00
2024-05-09T03:55:21.531Z,93360.00
2024-05-09T03:56:21.539Z,93361.00
2024-05-09T03:57:21.590Z,93361.00
2024-05-09T03:58:21.512Z,93361.00
2024-05-09T03:59:21.533Z,93360.00
2024-05-09T04:00:26.682Z,93360.00
2024-05-09T04:01:22.538Z,93359.00
2024-05-09T04:02:21.637Z,93360.00
2024-05-09T04:03:21.629Z,93362.00
2024-05-09T04:04:21.504Z,93365.00
2024-05-09T04:05:21.501Z,93362.00
2024-05-09T04:06:21.458Z,93362.00
2024-05-09T04:07:21.475Z,93365.00
2024-05-09T04:08:21.592Z,93364.00
2024-05-09T04:09:21.441Z,93364.00
2024-05-09T04:10:27.945Z,93363.00
2024-05-09T04:11:22.489Z,93364.00
2024-05-09T04:12:21.498Z,93364.00
2024-05-09T04:13:21.615Z,93365.00
2024-05-09T04:14:21.537Z,93364.00
2024-05-09T04:15:21.450Z,93364.00
2024-05-09T04:16:21.396Z,93365.00
2024-05-09T04:17:21.436Z,93365.00
2024-05-09T04:18:21.515Z,93364.00
2024-05-09T04:19:21.620Z,93364.00
2024-05-09T04:20:32.386Z,93366.00
2024-05-09T04:21:22.359Z,93368.00
2024-05-09T04:22:21.410Z,93369.00
2024-05-09T04:23:21.399Z,93370.00
2024-05-09T04:24:21.371Z,93372.00
2024-05-09T04:25:21.386Z,93372.00
2024-05-09T04:26:21.450Z,93375.00
2024-05-09T04:27:21.439Z,93374.00
2024-05-09T04:28:21.461Z,93376.00
2024-05-09T04:29:21.373Z,93377.00
2024-05-09T04:30:30.244Z,93377.00
2024-05-09T04:31:22.327Z,93377.00
2024-05-09T04:32:21.585Z,93377.00
2024-05-09T04:33:21.660Z,93378.00
2024-05-09T04:34:21.446Z,93377.00
2024-05-09T04:35:21.367Z,93376.00
2024-05-09T04:36:21.263Z,93375.00
2024-05-09T04:37:21.255Z,93377.00
2024-05-09T04:38:21.324Z,93377.00
2024-05-09T04:39:21.250Z,93378.00
2024-05-09T04:40:28.341Z,93378.00
2024-05-09T04:41:22.278Z,93380.00
2024-05-09T04:42:21.226Z,93381.00
2024-05-09T04:43:21.216Z,93383.00
2024-05-09T04:44:21.261Z,93383.00
2024-05-09T04:45:21.199Z,93385.00
2024-05-09T04:46:21.204Z,93383.00
2024-05-09T04:47:21.381Z,93384.00
2024-05-09T04:48:28.942Z,93386.00
2024-05-09T04:49:28.856Z,93385.00
2024-05-09T04:50:35.958Z,93384.00
2024-05-09T04:51:29.718Z,93384.00
2024-05-09T04:52:28.701Z,93382.00
2024-05-09T04:53:28.710Z,93378.00
2024-05-09T04:54:35.811Z,93378.00
2024-05-09T04:55:29.687Z,93376.00
2024-05-09T04:56:28.745Z,93378.00
2024-05-09T04:57:28.653Z,93378.00
2024-05-09T04:58:28.637Z,93376.00
2024-05-09T04:59:28.650Z,93377.00
2024-05-09T05:00:35.337Z,93378.00
2024-05-09T05:01:29.615Z,93376.00
2024-05-09T05:02:28.649Z,93376.00
2024-05-09T05:03:28.760Z,93379.00
2024-05-09T05:04:28.599Z,93380.00
2024-05-09T05:05:28.659Z,93384.00
2024-05-09T05:06:28.540Z,93386.00
2024-05-09T05:07:28.531Z,93383.00
2024-05-09T05:08:28.636Z,93383.00
2024-05-09T05:09:28.519Z,93384.00
2024-05-09T05:10:34.024Z,93385.00
2024-05-09T05:11:29.582Z,93384.00
2024-05-09T05:12:28.669Z,93387.00
2024-05-09T05:13:28.476Z,93387.00
2024-05-09T05:14:28.564Z,93385.00
2024-05-09T05:15:28.471Z,93388.00
2024-05-09T05:16:28.450Z,93389.00
2024-05-09T05:17:28.571Z,93388.00
2024-05-09T05:18:28.672Z,93388.00
2024-05-09T05:19:28.689Z,93386.00
2024-05-09T05:20:33.511Z,93385.00
2024-05-09T05:21:29.418Z,93385.00
2024-05-09T05:22:28.420Z,93385.00
2024-05-09T05:23:28.513Z,93386.00
2024-05-09T05:24:28.406Z,93384.00
2024-05-09T05:25:28.385Z,93386.00
2024-05-09T05:26:28.433Z,93383.00
2024-05-09T05:27:28.374Z,93388.00
2024-05-09T05:28:28.383Z,93387.00
2024-05-09T05:29:28.431Z,93389.00
2024-05-09T05:30:32.922Z,93387.00
2024-05-09T05:31:29.386Z,93389.00
2024-05-09T05:32:28.503Z,93389.00
2024-05-09T05:33:28.516Z,93391.00
2024-05-09T05:34:28.316Z,93390.00
2024-05-09T05:35:28.508Z,93392.00
2024-05-09T05:36:28.287Z,93393.00
2024-05-09T05:37:28.280Z,93392.00
2024-05-09T05:38:28.819Z,93392.00
2024-05-09T05:39:28.280Z,93393.00
2024-05-09T05:40:35.543Z,93395.00
2024-05-09T05:41:29.370Z,93395.00
2024-05-09T05:42:28.262Z,93394.00
2024-05-09T05:43:28.244Z,93393.00
2024-05-09T05:44:28.322Z,93393.00
2024-05-09T05:45:28.231Z,93392.00
2024-05-09T05:46:28.227Z,93392.00
2024-05-09T05:47:28.394Z,93390.00
2024-05-09T05:48:28.366Z,93390.00
2024-05-09T05:49:28.298Z,93389.00
2024-05-09T05:50:35.420Z,93389.00
2024-05-09T05:51:29.203Z,93391.00
2024-05-09T05:52:28.197Z,93391.00
2024-05-09T05:53:28.198Z,93391.00
2024-05-09T05:54:28.176Z,93392.00
2024-05-09T05:55:28.182Z,93393.00
2024-05-09T05:56:28.242Z,93392.00
2024-05-09T05:57:28.145Z,93394.00
2024-05-09T05:58:28.151Z,93390.00
2024-05-09T05:59:28.224Z,93392.00
2024-05-09T06:00:34.786Z,93394.00
2024-05-09T06:01:29.335Z,93397.00
2024-05-09T06:02:28.282Z,93394.00
2024-05-09T06:03:28.283Z,93395.00
2024-05-09T06:04:28.244Z,93396.00
2024-05-09T06:05:28.312Z,93398.00
2024-05-09T06:06:28.181Z,93398.00
2024-05-09T06:07:28.167Z,93401.00
2024-05-09T06:08:30.316Z,93400.00
2024-05-09T06:09:28.250Z,93399.00
2024-05-09T06:10:35.130Z,93400.00
2024-05-09T06:11:29.388Z,93401.00
2024-05-09T06:12:28.399Z,93400.00
2024-05-09T06:13:28.239Z,93399.00
2024-05-09T06:14:28.298Z,93401.00
2024-05-09T06:15:28.211Z,93402.00
2024-05-09T06:16:28.206Z,93402.00
2024-05-09T06:17:28.354Z,93400.00
2024-05-09T06:18:28.386Z,93400.00
2024-05-09T06:19:28.470Z,93398.00
2024-05-09T06:20:35.255Z,93398.00
2024-05-09T06:21:29.353Z,93398.00
2024-05-09T06:22:28.303Z,93399.00
2024-05-09T06:23:28.373Z,93396.00
2024-05-09T06:24:28.270Z,93397.00
2024-05-09T06:25:28.332Z,93394.00
2024-05-09T06:26:28.261Z,93395.00
2024-05-09T06:27:28.270Z,93393.00
2024-05-09T06:28:28.209Z,93392.00
2024-05-09T06:29:28.394Z,93391.00
2024-05-09T06:30:37.000Z,93386.00
2024-05-09T06:31:29.295Z,93389.00
2024-05-09T06:32:28.424Z,93387.00
2024-05-09T06:33:28.615Z,93385.00
2024-05-09T06:34:28.312Z,93386.00
2024-05-09T06:35:28.418Z,93388.00
2024-05-09T06:36:28.235Z,93387.00
2024-05-09T06:37:28.197Z,93387.00
2024-05-09T06:38:28.215Z,93387.00
2024-05-09T06:39:28.179Z,93388.00
2024-05-09T06:40:35.790Z,93387.00
2024-05-09T06:41:29.299Z,93389.00
2024-05-09T06:42:28.199Z,93386.00
2024-05-09T06:43:28.178Z,93389.00
2024-05-09T06:44:28.339Z,93392.00
2024-05-09T06:45:28.167Z,93391.00
2024-05-09T06:46:28.150Z,93392.00
2024-05-09T06:47:28.392Z,93389.00
2024-05-09T06:48:28.231Z,93392.00
2024-05-09T06:49:28.194Z,93389.00
2024-05-09T06:50:31.539Z,93389.00
2024-05-09T06:51:29.088Z,93393.00
2024-05-09T06:52:28.075Z,93391.00
2024-05-09T06:53:28.130Z,93393.00
2024-05-09T06:54:28.043Z,93394.00
2024-05-09T06:55:28.035Z,93393.00
2024-05-09T06:56:28.115Z,93393.00
2024-05-09T06:57:28.002Z,93395.00
2024-05-09T06:58:27.997Z,93390.00
2024-05-09T06:59:28.017Z,93392.00
2024-05-09T07:00:35.674Z,93392.00
2024-05-09T07:01:29.065Z,93390.00
2024-05-09T07:02:28.046Z,93390.00
2024-05-09T07:03:28.095Z,93389.00
2024-05-09T07:04:28.099Z,93388.00
2024-05-09T07:05:28.006Z,93386.00
2024-05-09T07:06:27.912Z,93387.00
2024-05-09T07:07:27.899Z,93385.00
2024-05-09T07:08:28.000Z,93383.00
2024-05-09T07:09:27.922Z,93381.00
2024-05-09T07:10:34.098Z,93384.00
2024-05-09T07:11:29.033Z,93383.00
2024-05-09T07:12:28.074Z,93384.00
2024-05-09T07:13:27.922Z,93382.00
2024-05-09T07:14:27.965Z,93382.00
2024-05-09T07:15:27.883Z,93383.00
2024-05-09T07:16:27.863Z,93385.00
2024-05-09T07:17:28.041Z,93386.00
2024-05-09T07:18:28.063Z,93384.00
2024-05-09T07:19:27.943Z,93385.00
2024-05-09T07:20:34.150Z,93382.00
2024-05-09T07:21:28.818Z,93384.00
2024-05-09T07:22:27.800Z,93383.00
2024-05-09T07:23:27.825Z,93380.00
2024-05-09T07:24:27.793Z,93381.00
2024-05-09T07:25:27.761Z,93383.00
2024-05-09T07:26:27.891Z,93380.00
2024-05-09T07:27:27.738Z,93381.00
2024-05-09T07:28:27.702Z,93380.00
2024-05-09T07:29:27.869Z,93378.00
2024-05-09T07:30:33.198Z,93379.00
2024-05-09T07:31:28.687Z,93376.00
2024-05-09T07:32:27.813Z,93378.00
2024-05-09T07:33:27.766Z,93377.00
2024-05-09T07:34:27.671Z,93378.00
2024-05-09T07:35:27.850Z,93377.00
2024-05-09T07:36:27.564Z,93379.00
2024-05-09T07:37:27.564Z,93379.00
2024-05-09T07:38:27.551Z,93379.00
2024-05-09T07:39:27.515Z,93376.00
2024-05-09T07:40:34.878Z,93377.00
2024-05-09T07:41:28.525Z,93376.00
2024-05-09T07:42:27.463Z,93374.00
2024-05-09T07:43:27.463Z,93374.00
2024-05-09T07:44:27.574Z,93373.00
2024-05-09T07:45:44.947Z,93372.00
2024-05-09T07:47:36.476Z,93372.00
2024-05-09T07:50:00.269Z,93372.00
2024-05-09T07:53:32.374Z,93367.00
2024-05-09T07:53:39.917Z,93370.00
2024-05-09T07:54:28.434Z,93368.00
2024-05-09T07:55:27.348Z,93365.00
2024-05-09T07:56:27.857Z,93369.00
2024-05-09T07:57:27.246Z,93364.00
2024-05-09T07:58:27.591Z,93364.00
2024-05-09T07:59:27.150Z,93363.00
2024-05-09T08:00:31.362Z,93361.00
2024-05-09T08:01:28.309Z,93362.00
2024-05-09T08:02:27.203Z,93361.00
2024-05-09T08:03:27.150Z,93363.00
2024-05-09T08:04:27.175Z,93361.00
2024-05-09T08:05:27.176Z,93359.00
2024-05-09T08:06:27.141Z,93360.00
2024-05-09T08:07:27.009Z,93359.00
2024-05-09T08:08:27.014Z,93362.00
2024-05-09T08:09:27.040Z,93363.00
2024-05-09T08:10:28.986Z,93365.00
2024-05-09T08:11:27.007Z,93364.00
2024-05-09T08:12:27.027Z,93362.00
2024-05-09T08:13:27.033Z,93362.00
2024-05-09T08:14:27.035Z,93359.00
2024-05-09T08:15:27.174Z,93358.00
2024-05-09T08:16:27.158Z,93357.00
2024-05-09T08:17:27.173Z,93355.00
2024-05-09T08:18:27.411Z,93353.00
2024-05-09T08:19:27.196Z,93351.00
2024-05-09T08:20:33.403Z,93348.00
2024-05-09T08:21:28.195Z,93347.00
2024-05-09T08:22:27.145Z,93348.00
2024-05-09T08:23:27.148Z,93348.00
2024-05-09T08:24:27.127Z,93345.00
2024-05-09T08:25:27.228Z,93347.00
2024-05-09T08:26:27.086Z,93346.00
2024-05-09T08:27:27.109Z,93346.00
2024-05-09T08:28:27.188Z,93344.00
2024-05-09T08:29:27.014Z,93345.00
2024-05-09T08:30:33.499Z,93343.00
2024-05-09T08:31:28.047Z,93345.00
2024-05-09T08:32:27.052Z,93343.00
2024-05-09T08:33:27.091Z,93341.00
2024-05-09T08:34:26.982Z,93342.00
2024-05-09T08:35:26.894Z,93342.00
2024-05-09T08:36:26.938Z,93341.00
2024-05-09T08:37:31.053Z,93342.00
2024-05-09T08:38:27.839Z,93340.00
2024-05-09T08:39:26.823Z,93340.00
2024-05-09T08:40:34.087Z,93339.00
2024-05-09T08:41:27.769Z,93338.00
2024-05-09T08:42:26.791Z,93338.00
2024-05-09T08:43:26.807Z,93337.00
2024-05-09T08:44:26.714Z,93336.00
2024-05-09T08:45:26.713Z,93337.00
2024-05-09T08:46:26.810Z,93334.00
2024-05-09T08:47:26.809Z,93334.00
2024-05-09T08:48:26.787Z,93332.00
2024-05-09T08:49:26.739Z,93331.00
2024-05-09T08:50:35.360Z,93331.00
2024-05-09T08:51:27.608Z,93329.00
2024-05-09T08:52:26.533Z,93329.00
2024-05-09T08:53:26.513Z,93329.00
2024-05-09T08:54:26.500Z,93326.00
2024-05-09T08:55:26.470Z,93328.00
2024-05-09T08:56:26.463Z,93327.00
2024-05-09T08:57:26.433Z,93327.00
2024-05-09T08:58:26.464Z,93327.00
2024-05-09T08:59:26.391Z,93324.00
2024-05-09T09:00:34.125Z,93324.00
2024-05-09T09:01:27.413Z,93324.00
2024-05-09T09:02:26.460Z,93322.00
2024-05-09T09:03:26.338Z,93322.00
2024-05-09T09:04:26.332Z,93322.00
2024-05-09T09:05:26.418Z,93322.00
2024-05-09T09:06:26.236Z,93321.00
2024-05-09T09:07:26.262Z,93323.00
2024-05-09T09:08:26.168Z,93322.00
2024-05-09T09:09:26.152Z,93322.00
2024-05-09T09:10:31.797Z,93320.00
2024-05-09T09:11:27.113Z,93324.00
2024-05-09T09:12:26.070Z,93322.00
2024-05-09T09:13:26.056Z,93319.00
2024-05-09T09:14:26.026Z,93321.00
2024-05-09T09:15:26.011Z,93320.00
2024-05-09T09:16:26.092Z,93322.00
2024-05-09T09:17:26.024Z,93321.00
2024-05-09T09:18:26.069Z,93321.00
2024-05-09T09:19:26.141Z,93319.00
2024-05-09T09:20:33.334Z,93320.00
2024-05-09T09:21:26.994Z,93318.00
2024-05-09T09:22:25.855Z,93317.00
2024-05-09T09:23:25.843Z,93319.00
2024-05-09T09:24:25.820Z,93318.00
2024-05-09T09:25:25.800Z,93318.00
2024-05-09T09:26:25.789Z,93313.00
2024-05-09T09:27:25.775Z,93316.00
2024-05-09T09:28:25.760Z,93316.00
2024-05-09T09:29:25.737Z,93315.00
2024-05-09T09:30:34.797Z,93314.00
2024-05-09T09:31:26.751Z,93314.00
2024-05-09T09:32:25.760Z,93313.00
2024-05-09T09:33:25.707Z,93312.00
2024-05-09T09:34:25.696Z,93313.00
2024-05-09T09:35:25.612Z,93312.00
2024-05-09T09:36:25.586Z,93309.00
2024-05-09T09:37:25.575Z,93311.00
2024-05-09T09:38:25.549Z,93308.00
2024-05-09T09:39:25.532Z,93307.00
2024-05-09T09:40:31.405Z,93307.00
2024-05-09T09:41:26.474Z,93304.00
2024-05-09T09:42:25.458Z,93303.00
2024-05-09T09:43:25.482Z,93301.00
2024-05-09T09:44:25.414Z,93301.00
2024-05-09T09:45:25.409Z,93296.00
2024-05-09T09:46:25.536Z,93295.00
2024-05-09T09:47:25.379Z,93293.00
2024-05-09T09:48:25.461Z,93291.00
2024-05-09T09:49:25.427Z,93291.00
2024-05-09T09:51:25.274Z,93288.00
2024-05-09T09:52:25.279Z,93287.00
2024-05-09T09:53:25.229Z,93288.00
2024-05-09T09:54:25.206Z,93289.00
2024-05-09T09:55:25.269Z,93287.00
2024-05-09T09:56:25.175Z,93287.00
2024-05-09T09:57:25.193Z,93285.00
2024-05-09T09:58:25.263Z,93284.00
2024-05-09T09:59:25.221Z,93284.00
2024-05-09T10:00:30.577Z,93282.00
2024-05-09T10:01:26.275Z,93283.00
2024-05-09T10:02:25.276Z,93282.00
2024-05-09T10:03:25.220Z,93279.00
2024-05-09T10:04:25.210Z,93279.00
2024-05-09T10:05:25.401Z,93281.00
2024-05-09T10:06:25.108Z,93279.00
2024-05-09T10:07:25.062Z,93278.00
2024-05-09T10:08:25.041Z,93277.00
2024-05-09T10:09:25.059Z,93276.00
2024-05-09T10:10:31.478Z,93276.00
2024-05-09T10:11:26.048Z,93274.00
2024-05-09T10:12:24.994Z,93274.00
2024-05-09T10:13:25.025Z,93274.00
2024-05-09T10:14:24.904Z,93272.00
2024-05-09T10:15:24.891Z,93271.00
2024-05-09T10:16:24.962Z,93273.00
2024-05-09T10:17:24.957Z,93271.00
2024-05-09T10:18:28.330Z,93270.00
2024-05-09T10:19:25.863Z,93272.00
2024-05-09T10:20:28.114Z,93271.00
2024-05-09T10:21:25.780Z,93270.00
2024-05-09T10:22:24.754Z,93269.00
2024-05-09T10:23:24.727Z,93269.00
2024-05-09T10:24:24.682Z,93267.00
2024-05-09T10:25:24.752Z,93264.00
2024-05-09T10:26:24.643Z,93263.00
2024-05-09T10:27:24.626Z,93262.00
2024-05-09T10:28:24.613Z,93259.00
2024-05-09T10:29:24.592Z,93258.00
2024-05-09T10:30:33.427Z,93257.00
2024-05-09T10:31:25.584Z,93256.00
2024-05-09T10:32:24.656Z,93252.00
2024-05-09T10:33:24.559Z,93251.00
2024-05-09T10:34:24.818Z,93254.00
2024-05-09T10:35:24.454Z,93251.00
2024-05-09T10:36:24.446Z,93249.00
2024-05-09T10:37:24.569Z,93247.00
2024-05-09T10:38:24.386Z,93245.00
2024-05-09T10:39:24.359Z,93246.00
2024-05-09T10:40:30.979Z,93245.00
2024-05-09T10:41:25.295Z,93245.00
2024-05-09T10:42:24.263Z,93242.00
2024-05-09T10:43:24.287Z,93242.00
2024-05-09T10:44:24.222Z,93239.00
2024-05-09T10:45:24.183Z,93241.00
2024-05-09T10:46:24.227Z,93242.00
2024-05-09T10:47:24.386Z,93241.00
2024-05-09T10:48:24.299Z,93237.00
2024-05-09T10:49:24.220Z,93238.00
2024-05-09T10:50:28.667Z,93239.00
2024-05-09T10:51:25.037Z,93239.00
2024-05-09T10:52:24.097Z,93238.00
2024-05-09T10:53:24.008Z,93237.00
2024-05-09T10:54:23.956Z,93235.00
2024-05-09T10:55:24.054Z,93238.00
2024-05-09T10:56:23.941Z,93236.00
2024-05-09T10:57:23.909Z,93236.00
2024-05-09T10:58:23.927Z,93233.00
2024-05-09T10:59:23.848Z,93232.00
2024-05-09T11:00:30.533Z,93230.00
2024-05-09T11:01:24.875Z,93229.00
2024-05-09T11:02:24.005Z,93226.00
2024-05-09T11:03:23.891Z,93226.00
2024-05-09T11:04:23.808Z,93226.00
2024-05-09T11:05:23.818Z,93226.00
2024-05-09T11:06:23.721Z,93225.00
2024-05-09T11:07:23.829Z,93221.00
2024-05-09T11:08:23.673Z,93222.00
2024-05-09T11:09:23.639Z,93218.00
2024-05-09T11:10:27.600Z,93221.00
2024-05-09T11:11:24.592Z,93219.00
2024-05-09T11:12:24.791Z,93219.00
2024-05-09T11:13:23.542Z,93217.00
2024-05-09T11:14:23.532Z,93217.00
2024-05-09T11:15:23.502Z,93215.00
2024-05-09T11:16:23.554Z,93215.00
2024-05-09T11:17:23.523Z,93212.00
2024-05-09T11:18:24.952Z,93217.00
2024-05-09T11:19:23.805Z,93214.00
2024-05-09T11:20:29.496Z,93214.00
2024-05-09T11:21:24.728Z,93215.00
2024-05-09T11:22:23.638Z,93213.00
2024-05-09T11:23:23.583Z,93215.00
2024-05-09T11:24:23.557Z,93216.00
2024-05-09T11:25:23.545Z,93215.00
2024-05-09T11:26:23.493Z,93215.00
2024-05-09T11:27:23.487Z,93217.00
2024-05-09T11:28:23.491Z,93215.00
2024-05-09T11:29:23.414Z,93215.00
2024-05-09T11:30:29.799Z,93213.00
2024-05-09T11:31:24.623Z,93212.00
2024-05-09T11:32:23.377Z,93211.00
2024-05-09T11:33:23.355Z,93210.00
2024-05-09T11:34:23.366Z,93209.00
2024-05-09T11:35:23.305Z,93208.00
2024-05-09T11:36:23.284Z,93211.00
2024-05-09T11:37:23.264Z,93212.00
2024-05-09T11:38:23.241Z,93208.00
2024-05-09T11:39:23.216Z,93209.00
2024-05-09T11:40:25.805Z,93207.00
2024-05-09T11:41:24.185Z,93203.00
2024-05-09T11:42:23.160Z,93205.00
2024-05-09T11:43:23.310Z,93203.00
2024-05-09T11:44:23.124Z,93199.00
2024-05-09T11:45:23.542Z,93199.00
2024-05-09T11:46:23.265Z,93201.00
2024-05-09T11:47:23.195Z,93198.00
2024-05-09T11:48:23.108Z,93197.00
2024-05-09T11:49:26.316Z,93197.00
2024-05-09T11:50:29.687Z,93197.00
2024-05-09T11:51:23.966Z,93194.00
2024-05-09T11:52:22.988Z,93194.00
2024-05-09T11:53:22.975Z,93194.00